Historyczne dane pomiarowe

Dodano dane terminowe – wersja testowa.

Dane z okresu 1951-2019

Wersja bazy: 1.34 [2019-03-16, lista zmian], aktualizacja planowana na 2019-04-15

Dane meteo z obszaru Polski uzyskane na podstawie danych udostępnionych przez Instytut Meteorologii i Gospodarki Wodnej – Państwowy Instytut Badawczy.

 

Wybierz Datę:    

       

TemperaturaWilgotnośćZachmurzenieWiatrCiśnienieWidzialnośćZjawiska
 Data    tng td wb rh cc ccl cl cm ch dir g1 g2 mslp ppp      
1999-08-05 00:00:00 13.6--- 10.0 11.679wxwx1wx--1015.3 993.1 0.0---wx
1999-08-05 01:00:00 13.0--- 9.7 11.281wxwx1wx--1015.1 992.9----wx
1999-08-05 02:00:00 10.5--- 8.8 9.689wxwx1wx--1015.2 992.8----wx
1999-08-05 03:00:00 10.2--- 9.1 9.693wxwx0wx--1015.4 992.9----wx
1999-08-05 04:00:00 10.8--- 9.3 10.091wxwx1wx--1015.5 993.1----wx
1999-08-05 05:00:00 14.2--- 11.8 12.885wxwx0wx--1015.4 993.2----wx
1999-08-05 06:00:00 19.4--- 12.4 15.264wxwx0wx--1015.1 993.3 0.0---wx
1999-08-05 07:00:00 23.2--- 9.8 15.443wxwx1wx--1014.7 993.2----wx
1999-08-05 08:00:00 24.4--- 10.6 16.242wxwx3wx--1014.5 993.1----wx
1999-08-05 09:00:00 25.0--- 9.6 16.038wxwxwx2wx--1014.3 993.0----wx
1999-08-05 10:00:00 26.1--- 9.1 16.234wxwxwx2wx--1014.1 992.8----wx
1999-08-05 11:00:00 26.4--- 8.8 16.233wxwxwx0wx--1013.8 992.6----wx
1999-08-05 12:00:00 25.1--- 7.6 15.233wxwxwx1wx--1013.7 992.4 0.0---wx
1999-08-05 13:00:00 26.7--- 9.8 16.735wxwxwx3wx--1013.1 991.9----wx
1999-08-05 14:00:00 26.3--- 9.4 16.435wxwxwx2wx--1012.8 991.6----wx
1999-08-05 15:00:00 26.1--- 9.8 16.536wxwx2wx--1012.7 991.5----wx
1999-08-05 16:00:00 26.3--- 10.1 16.736wxwx2wx--1012.5 991.3----wx
1999-08-05 17:00:00 25.0--- 9.4 15.937wxwx2wx--1012.4 991.1----wx
1999-08-05 18:00:00 22.2--- 11.5 15.851wxwx0wx--1012.6 991.1 0.0---wx
1999-08-05 19:00:00 18.0--- 11.1 14.064wxwx0wx--1013.0 991.2----wx
1999-08-05 20:00:00 17.0--- 10.9 13.567wxwx0wx--1013.0 991.1----wx
1999-08-05 21:00:00 14.3--- 10.4 12.177wxwx0wx--1013.2 991.1----wx
1999-08-05 22:00:00 12.5--- 9.8 11.083wxwx1wx--1013.2 991.0----wx
1999-08-05 23:00:00 11.3--- 8.9 10.085wxwx0wx--1013.3 991.0----wx

 

Źródłem pochodzenia danych jest Instytut Meteorologii i Gospodarki Wodnej – Państwowy Instytut Badawczy. Dane Instytutu Meteorologii i Gospodarki Wodnej – Państwowego Instytutu Badawczego zostały przetworzone.

Dane źródłowe można odnaleźć na stronie https://dane.imgw.pl